sensor_id;sensor_type;location;lat;lon;timestamp;pressure;altitude;pressure_sealevel;temperature;humidity
49311;BME280;35177;45.900;5.946;2023-08-01T00:01:57;97106.41;;;17.48;81.10
49311;BME280;35177;45.900;5.946;2023-08-01T00:04:22;97100.41;;;17.28;82.30
49311;BME280;35177;45.900;5.946;2023-08-01T00:06:48;97109.09;;;17.12;83.45
49311;BME280;35177;45.900;5.946;2023-08-01T00:09:13;97114.16;;;17.15;82.79
49311;BME280;35177;45.900;5.946;2023-08-01T00:11:38;97107.44;;;17.11;83.83
49311;BME280;35177;45.900;5.946;2023-08-01T00:14:04;97106.59;;;17.11;83.13
49311;BME280;35177;45.900;5.946;2023-08-01T00:16:29;97107.75;;;17.08;82.90
49311;BME280;35177;45.900;5.946;2023-08-01T00:18:56;97102.34;;;17.00;83.45
49311;BME280;35177;45.900;5.946;2023-08-01T00:21:21;97097.59;;;17.12;82.46
49311;BME280;35177;45.900;5.946;2023-08-01T00:23:46;97095.53;;;17.06;81.68
49311;BME280;35177;45.900;5.946;2023-08-01T00:26:12;97102.06;;;16.94;82.19
49311;BME280;35177;45.900;5.946;2023-08-01T00:28:37;97102.25;;;16.92;82.06
49311;BME280;35177;45.900;5.946;2023-08-01T00:31:04;97095.03;;;16.75;82.37
49311;BME280;35177;45.900;5.946;2023-08-01T00:33:30;97090.72;;;16.74;82.93
49311;BME280;35177;45.900;5.946;2023-08-01T00:35:55;97092.59;;;16.64;83.20
49311;BME280;35177;45.900;5.946;2023-08-01T00:38:21;97090.53;;;16.76;82.42
49311;BME280;35177;45.900;5.946;2023-08-01T00:40:46;97086.34;;;16.73;82.24
49311;BME280;35177;45.900;5.946;2023-08-01T00:43:12;97086.50;;;16.72;83.24
49311;BME280;35177;45.900;5.946;2023-08-01T00:45:37;97090.63;;;16.39;83.42
49311;BME280;35177;45.900;5.946;2023-08-01T00:48:03;97087.94;;;16.39;82.69
49311;BME280;35177;45.900;5.946;2023-08-01T00:50:29;97083.25;;;16.50;83.06
49311;BME280;35177;45.900;5.946;2023-08-01T00:52:54;97072.72;;;16.49;82.82
49311;BME280;35177;45.900;5.946;2023-08-01T00:55:21;97080.16;;;16.55;82.32
49311;BME280;35177;45.900;5.946;2023-08-01T00:57:48;97075.34;;;16.31;82.27
49311;BME280;35177;45.900;5.946;2023-08-01T01:03:17;97058.84;;;16.18;83.43
49311;BME280;35177;45.900;5.946;2023-08-01T01:06:02;97061.91;;;16.23;83.30
49311;BME280;35177;45.900;5.946;2023-08-01T01:08:32;97064.91;;;16.11;83.58
49311;BME280;35177;45.900;5.946;2023-08-01T01:10:57;97074.28;;;16.15;84.20
49311;BME280;35177;45.900;5.946;2023-08-01T01:13:23;97061.47;;;16.01;84.78
49311;BME280;35177;45.900;5.946;2023-08-01T01:15:48;97055.72;;;15.95;84.42
49311;BME280;35177;45.900;5.946;2023-08-01T01:18:13;97058.66;;;16.02;83.97
49311;BME280;35177;45.900;5.946;2023-08-01T01:20:39;97071.06;;;15.93;84.47
49311;BME280;35177;45.900;5.946;2023-08-01T01:23:05;97071.34;;;15.90;85.35
49311;BME280;35177;45.900;5.946;2023-08-01T01:25:32;97062.16;;;16.03;85.18
49311;BME280;35177;45.900;5.946;2023-08-01T01:28:04;97060.44;;;16.29;84.12
49311;BME280;35177;45.900;5.946;2023-08-01T01:30:29;97062.84;;;16.32;84.31
49311;BME280;35177;45.900;5.946;2023-08-01T01:32:55;97058.25;;;16.51;84.58
49311;BME280;35177;45.900;5.946;2023-08-01T01:35:21;97059.88;;;16.35;84.64
49311;BME280;35177;45.900;5.946;2023-08-01T01:37:46;97061.00;;;16.59;83.84
49311;BME280;35177;45.900;5.946;2023-08-01T01:40:11;97066.91;;;16.63;83.56
49311;BME280;35177;45.900;5.946;2023-08-01T01:42:37;97056.50;;;16.60;83.60
49311;BME280;35177;45.900;5.946;2023-08-01T01:45:03;97049.41;;;16.51;83.80
49311;BME280;35177;45.900;5.946;2023-08-01T01:47:28;97044.59;;;16.27;84.99
49311;BME280;35177;45.900;5.946;2023-08-01T01:49:54;97049.59;;;16.13;85.90
49311;BME280;35177;45.900;5.946;2023-08-01T01:52:19;97049.69;;;16.21;85.73
49311;BME280;35177;45.900;5.946;2023-08-01T01:54:44;97054.13;;;16.30;85.28
49311;BME280;35177;45.900;5.946;2023-08-01T01:57:10;97048.97;;;16.28;84.94
49311;BME280;35177;45.900;5.946;2023-08-01T01:59:35;97058.19;;;16.07;85.87
49311;BME280;35177;45.900;5.946;2023-08-01T02:02:01;97066.97;;;15.89;86.64
49311;BME280;35177;45.900;5.946;2023-08-01T02:04:29;97061.06;;;15.95;86.51
49311;BME280;35177;45.900;5.946;2023-08-01T02:06:54;97048.13;;;16.01;85.79
49311;BME280;35177;45.900;5.946;2023-08-01T02:09:20;97056.13;;;16.01;86.38
49311;BME280;35177;45.900;5.946;2023-08-01T02:11:45;97051.47;;;16.03;86.24
49311;BME280;35177;45.900;5.946;2023-08-01T02:14:11;97061.09;;;15.86;87.78
49311;BME280;35177;45.900;5.946;2023-08-01T02:16:36;97051.84;;;16.08;87.11
49311;BME280;35177;45.900;5.946;2023-08-01T02:19:01;97048.84;;;16.20;86.37
49311;BME280;35177;45.900;5.946;2023-08-01T02:21:27;97046.69;;;16.06;87.59
49311;BME280;35177;45.900;5.946;2023-08-01T02:23:52;97056.41;;;16.25;86.12
49311;BME280;35177;45.900;5.946;2023-08-01T02:26:18;97059.69;;;16.19;87.20
49311;BME280;35177;45.900;5.946;2023-08-01T02:28:43;97067.97;;;16.16;87.69
49311;BME280;35177;45.900;5.946;2023-08-01T02:31:09;97059.47;;;16.30;86.77
49311;BME280;35177;45.900;5.946;2023-08-01T02:33:34;97054.66;;;16.33;87.05
49311;BME280;35177;45.900;5.946;2023-08-01T02:36:00;97062.94;;;16.40;86.07
49311;BME280;35177;45.900;5.946;2023-08-01T02:38:25;97053.84;;;16.33;86.52
49311;BME280;35177;45.900;5.946;2023-08-01T02:40:50;97056.50;;;16.33;86.66
49311;BME280;35177;45.900;5.946;2023-08-01T02:43:16;97055.22;;;16.37;86.43
49311;BME280;35177;45.900;5.946;2023-08-01T02:45:42;97049.19;;;16.08;88.17
49311;BME280;35177;45.900;5.946;2023-08-01T02:48:07;97068.66;;;15.90;88.84
49311;BME280;35177;45.900;5.946;2023-08-01T02:50:33;97059.69;;;16.19;87.84
49311;BME280;35177;45.900;5.946;2023-08-01T02:52:58;97053.06;;;16.23;87.32
49311;BME280;35177;45.900;5.946;2023-08-01T02:55:24;97053.53;;;16.36;86.65
49311;BME280;35177;45.900;5.946;2023-08-01T02:57:49;97048.19;;;16.36;86.39
49311;BME280;35177;45.900;5.946;2023-08-01T03:00:14;97048.06;;;16.37;86.23
49311;BME280;35177;45.900;5.946;2023-08-01T03:02:42;97040.31;;;16.17;87.44
49311;BME280;35177;45.900;5.946;2023-08-01T03:05:08;97032.66;;;16.22;87.91
49311;BME280;35177;45.900;5.946;2023-08-01T03:07:34;97031.78;;;16.04;88.52
49311;BME280;35177;45.900;5.946;2023-08-01T03:10:00;97030.91;;;16.13;88.05
49311;BME280;35177;45.900;5.946;2023-08-01T03:12:25;97018.44;;;16.31;87.26
49311;BME280;35177;45.900;5.946;2023-08-01T03:14:51;97017.72;;;16.29;86.63
49311;BME280;35177;45.900;5.946;2023-08-01T03:17:16;97013.63;;;16.34;86.27
49311;BME280;35177;45.900;5.946;2023-08-01T03:19:42;97014.72;;;16.41;85.66
49311;BME280;35177;45.900;5.946;2023-08-01T03:22:08;97018.13;;;16.34;85.75
49311;BME280;35177;45.900;5.946;2023-08-01T03:24:33;97018.81;;;16.36;85.78
49311;BME280;35177;45.900;5.946;2023-08-01T03:26:59;97026.69;;;16.37;85.66
49311;BME280;35177;45.900;5.946;2023-08-01T03:29:24;97013.47;;;16.36;85.95
49311;BME280;35177;45.900;5.946;2023-08-01T03:31:49;97017.84;;;16.37;85.91
49311;BME280;35177;45.900;5.946;2023-08-01T03:34:15;97025.91;;;16.27;86.40
49311;BME280;35177;45.900;5.946;2023-08-01T03:36:40;97015.06;;;16.29;85.90
49311;BME280;35177;45.900;5.946;2023-08-01T03:39:06;97007.16;;;16.37;84.91
49311;BME280;35177;45.900;5.946;2023-08-01T03:41:32;97004.31;;;16.38;85.36
49311;BME280;35177;45.900;5.946;2023-08-01T03:43:57;97003.47;;;16.38;85.32
49311;BME280;35177;45.900;5.946;2023-08-01T03:46:23;97006.75;;;16.32;85.76
49311;BME280;35177;45.900;5.946;2023-08-01T03:48:48;96997.97;;;16.22;86.39
49311;BME280;35177;45.900;5.946;2023-08-01T03:51:14;97006.84;;;15.95;88.55
49311;BME280;35177;45.900;5.946;2023-08-01T03:53:40;96993.28;;;15.88;89.62
49311;BME280;35177;45.900;5.946;2023-08-01T03:56:07;96980.00;;;15.96;89.04
49311;BME280;35177;45.900;5.946;2023-08-01T03:58:32;96981.28;;;15.92;89.36
49311;BME280;35177;45.900;5.946;2023-08-01T04:00:58;96976.25;;;15.89;89.80
49311;BME280;35177;45.900;5.946;2023-08-01T04:03:23;96967.84;;;15.84;89.50
49311;BME280;35177;45.900;5.946;2023-08-01T04:05:48;96962.47;;;15.94;88.66
49311;BME280;35177;45.900;5.946;2023-08-01T04:08:14;96968.63;;;15.94;88.95
49311;BME280;35177;45.900;5.946;2023-08-01T04:10:39;96964.19;;;15.85;88.78
49311;BME280;35177;45.900;5.946;2023-08-01T04:13:05;96975.66;;;15.95;88.15
49311;BME280;35177;45.900;5.946;2023-08-01T04:15:30;96972.78;;;16.07;87.02
49311;BME280;35177;45.900;5.946;2023-08-01T04:17:55;96975.53;;;16.15;86.35
49311;BME280;35177;45.900;5.946;2023-08-01T04:20:21;96990.06;;;16.30;84.40
49311;BME280;35177;45.900;5.946;2023-08-01T04:22:46;96991.53;;;16.42;83.35
49311;BME280;35177;45.900;5.946;2023-08-01T04:25:12;96984.88;;;16.46;82.89
49311;BME280;35177;45.900;5.946;2023-08-01T04:27:37;96982.19;;;16.46;82.49
49311;BME280;35177;45.900;5.946;2023-08-01T04:30:03;96989.88;;;16.58;81.00
49311;BME280;35177;45.900;5.946;2023-08-01T04:32:28;96986.19;;;16.59;81.68
49311;BME280;35177;45.900;5.946;2023-08-01T04:34:54;96985.00;;;16.54;82.03
49311;BME280;35177;45.900;5.946;2023-08-01T04:37:19;96971.00;;;16.60;81.96
49311;BME280;35177;45.900;5.946;2023-08-01T04:39:48;96983.41;;;16.61;82.85
49311;BME280;35177;45.900;5.946;2023-08-01T04:42:13;96984.06;;;16.63;82.69
49311;BME280;35177;45.900;5.946;2023-08-01T04:44:39;96979.53;;;16.46;84.46
49311;BME280;35177;45.900;5.946;2023-08-01T04:47:05;96968.13;;;16.53;83.94
49311;BME280;35177;45.900;5.946;2023-08-01T04:49:30;96972.50;;;16.45;85.45
49311;BME280;35177;45.900;5.946;2023-08-01T04:51:55;96982.66;;;16.41;85.80
49311;BME280;35177;45.900;5.946;2023-08-01T04:54:21;96981.47;;;16.53;85.36
49311;BME280;35177;45.900;5.946;2023-08-01T04:56:47;96980.25;;;16.65;84.60
49311;BME280;35177;45.900;5.946;2023-08-01T04:59:13;96994.91;;;16.79;83.78
49311;BME280;35177;45.900;5.946;2023-08-01T05:01:38;96998.47;;;16.88;83.79
49311;BME280;35177;45.900;5.946;2023-08-01T05:04:05;97012.34;;;16.91;81.20
49311;BME280;35177;45.900;5.946;2023-08-01T05:06:30;97013.75;;;16.95;80.82
49311;BME280;35177;45.900;5.946;2023-08-01T05:08:55;97014.88;;;16.93;81.24
49311;BME280;35177;45.900;5.946;2023-08-01T05:11:21;97011.75;;;16.80;81.19
49311;BME280;35177;45.900;5.946;2023-08-01T05:13:47;97023.75;;;16.93;80.93
49311;BME280;35177;45.900;5.946;2023-08-01T05:16:12;97019.94;;;16.96;81.23
49311;BME280;35177;45.900;5.946;2023-08-01T05:18:37;97015.94;;;16.82;83.18
49311;BME280;35177;45.900;5.946;2023-08-01T05:21:03;97020.75;;;16.96;82.34
49311;BME280;35177;45.900;5.946;2023-08-01T05:23:28;97019.69;;;17.07;80.43
49311;BME280;35177;45.900;5.946;2023-08-01T05:25:54;97031.44;;;16.96;83.20
49311;BME280;35177;45.900;5.946;2023-08-01T05:28:20;97027.72;;;16.89;82.24
49311;BME280;35177;45.900;5.946;2023-08-01T05:30:45;97012.22;;;16.93;82.81
49311;BME280;35177;45.900;5.946;2023-08-01T05:33:11;97020.06;;;16.94;84.77
49311;BME280;35177;45.900;5.946;2023-08-01T05:35:36;97009.75;;;16.99;84.76
49311;BME280;35177;45.900;5.946;2023-08-01T05:38:01;97017.53;;;17.10;84.29
49311;BME280;35177;45.900;5.946;2023-08-01T05:40:27;97012.38;;;17.17;83.44
49311;BME280;35177;45.900;5.946;2023-08-01T05:42:52;97014.81;;;17.02;83.17
49311;BME280;35177;45.900;5.946;2023-08-01T05:45:18;97004.41;;;16.99;83.91
49311;BME280;35177;45.900;5.946;2023-08-01T05:47:43;96993.22;;;16.96;84.83
49311;BME280;35177;45.900;5.946;2023-08-01T05:50:09;96994.13;;;17.12;83.54
49311;BME280;35177;45.900;5.946;2023-08-01T05:52:35;96992.38;;;17.21;83.77
49311;BME280;35177;45.900;5.946;2023-08-01T05:55:01;96988.00;;;17.46;78.97
49311;BME280;35177;45.900;5.946;2023-08-01T05:57:27;96975.16;;;18.17;69.19
49311;BME280;35177;45.900;5.946;2023-08-01T05:59:52;96974.09;;;18.76;66.33
49311;BME280;35177;45.900;5.946;2023-08-01T06:02:18;96987.81;;;19.29;63.09
49311;BME280;35177;45.900;5.946;2023-08-01T06:04:44;96978.09;;;18.55;72.91
49311;BME280;35177;45.900;5.946;2023-08-01T06:07:09;96979.44;;;18.59;69.63
49311;BME280;35177;45.900;5.946;2023-08-01T06:09:34;96988.34;;;18.92;63.97
49311;BME280;35177;45.900;5.946;2023-08-01T06:12:00;96984.81;;;19.16;63.43
49311;BME280;35177;45.900;5.946;2023-08-01T06:14:25;96983.06;;;19.71;58.36
49311;BME280;35177;45.900;5.946;2023-08-01T06:16:51;96975.25;;;19.92;57.69
49311;BME280;35177;45.900;5.946;2023-08-01T06:19:16;96969.22;;;19.90;58.23
49311;BME280;35177;45.900;5.946;2023-08-01T06:21:42;96963.50;;;19.93;58.61
49311;BME280;35177;45.900;5.946;2023-08-01T06:24:07;96970.53;;;20.02;56.54
49311;BME280;35177;45.900;5.946;2023-08-01T06:26:33;96980.50;;;20.17;55.89
49311;BME280;35177;45.900;5.946;2023-08-01T06:28:59;96990.66;;;20.06;58.56
49311;BME280;35177;45.900;5.946;2023-08-01T06:31:24;97000.88;;;20.03;57.92
49311;BME280;35177;45.900;5.946;2023-08-01T06:33:50;97014.03;;;19.90;60.06
49311;BME280;35177;45.900;5.946;2023-08-01T06:36:15;97029.03;;;19.76;60.87
49311;BME280;35177;45.900;5.946;2023-08-01T06:38:42;97032.75;;;19.67;62.22
49311;BME280;35177;45.900;5.946;2023-08-01T06:41:07;97035.09;;;19.62;62.53
49311;BME280;35177;45.900;5.946;2023-08-01T06:43:33;97044.00;;;19.55;64.75
49311;BME280;35177;45.900;5.946;2023-08-01T06:45:58;97062.81;;;19.47;68.17
49311;BME280;35177;45.900;5.946;2023-08-01T06:48:24;97060.44;;;19.44;66.50
49311;BME280;35177;45.900;5.946;2023-08-01T06:50:49;97062.44;;;19.50;65.27
49311;BME280;35177;45.900;5.946;2023-08-01T06:53:14;97074.34;;;19.47;66.30
49311;BME280;35177;45.900;5.946;2023-08-01T06:55:40;97068.66;;;19.50;65.36
49311;BME280;35177;45.900;5.946;2023-08-01T06:58:05;97081.91;;;19.52;65.32
49311;BME280;35177;45.900;5.946;2023-08-01T07:00:31;97074.03;;;19.50;68.17
49311;BME280;35177;45.900;5.946;2023-08-01T07:02:57;97072.69;;;19.46;68.29
49311;BME280;35177;45.900;5.946;2023-08-01T07:05:22;97080.06;;;19.60;66.54
49311;BME280;35177;45.900;5.946;2023-08-01T07:07:48;97080.38;;;19.73;61.47
49311;BME280;35177;45.900;5.946;2023-08-01T07:10:14;97084.53;;;19.92;62.17
49311;BME280;35177;45.900;5.946;2023-08-01T07:12:39;97085.81;;;20.12;56.16
49311;BME280;35177;45.900;5.946;2023-08-01T07:15:05;97080.91;;;20.32;54.33
49311;BME280;35177;45.900;5.946;2023-08-01T07:17:31;97082.16;;;20.52;53.78
49311;BME280;35177;45.900;5.946;2023-08-01T07:19:57;97080.38;;;20.44;54.00
49311;BME280;35177;45.900;5.946;2023-08-01T07:22:22;97064.78;;;20.32;55.52
49311;BME280;35177;45.900;5.946;2023-08-01T07:24:52;97070.19;;;20.24;58.22
49311;BME280;35177;45.900;5.946;2023-08-01T07:27:18;97068.81;;;20.20;57.40
49311;BME280;35177;45.900;5.946;2023-08-01T07:29:44;97073.34;;;20.19;57.34
49311;BME280;35177;45.900;5.946;2023-08-01T07:32:09;97059.63;;;20.22;56.77
49311;BME280;35177;45.900;5.946;2023-08-01T07:34:35;97065.50;;;20.26;56.67
49311;BME280;35177;45.900;5.946;2023-08-01T07:37:00;97065.97;;;20.29;56.68
49311;BME280;35177;45.900;5.946;2023-08-01T07:39:26;97057.72;;;20.31;57.15
49311;BME280;35177;45.900;5.946;2023-08-01T07:41:51;97055.72;;;20.33;57.11
49311;BME280;35177;45.900;5.946;2023-08-01T07:44:16;97060.38;;;20.39;57.81
49311;BME280;35177;45.900;5.946;2023-08-01T07:46:42;97054.28;;;20.45;57.98
49311;BME280;35177;45.900;5.946;2023-08-01T07:49:07;97055.97;;;20.46;58.90
49311;BME280;35177;45.900;5.946;2023-08-01T07:51:33;97064.38;;;20.51;59.09
49311;BME280;35177;45.900;5.946;2023-08-01T07:53:59;97066.34;;;20.57;58.36
49311;BME280;35177;45.900;5.946;2023-08-01T07:56:24;97070.72;;;20.58;59.00
49311;BME280;35177;45.900;5.946;2023-08-01T07:58:50;97070.72;;;20.58;59.40
49311;BME280;35177;45.900;5.946;2023-08-01T08:01:15;97079.47;;;20.52;59.95
49311;BME280;35177;45.900;5.946;2023-08-01T08:03:41;97080.19;;;20.46;60.21
49311;BME280;35177;45.900;5.946;2023-08-01T08:06:06;97079.47;;;20.52;60.06
49311;BME280;35177;45.900;5.946;2023-08-01T08:08:32;97091.69;;;20.62;59.23
49311;BME280;35177;45.900;5.946;2023-08-01T08:11:02;97086.09;;;20.72;59.04
49311;BME280;35177;45.900;5.946;2023-08-01T08:13:28;97077.31;;;20.78;58.69
49311;BME280;35177;45.900;5.946;2023-08-01T08:15:56;97080.13;;;20.85;59.45
49311;BME280;35177;45.900;5.946;2023-08-01T08:18:22;97079.47;;;20.83;59.60
49311;BME280;35177;45.900;5.946;2023-08-01T08:20:48;97078.75;;;20.89;59.34
49311;BME280;35177;45.900;5.946;2023-08-01T08:23:13;97079.97;;;20.86;57.96
49311;BME280;35177;45.900;5.946;2023-08-01T08:25:40;97078.41;;;20.92;57.88
49311;BME280;35177;45.900;5.946;2023-08-01T08:28:06;97082.03;;;21.07;55.73
49311;BME280;35177;45.900;5.946;2023-08-01T08:30:31;97086.69;;;21.13;55.21
49311;BME280;35177;45.900;5.946;2023-08-01T08:32:58;97087.53;;;21.13;55.00
49311;BME280;35177;45.900;5.946;2023-08-01T08:35:25;97087.19;;;21.16;54.66
49311;BME280;35177;45.900;5.946;2023-08-01T08:37:51;97080.03;;;21.23;53.25
49311;BME280;35177;45.900;5.946;2023-08-01T08:40:16;97074.63;;;21.31;53.46
49311;BME280;35177;45.900;5.946;2023-08-01T08:42:43;97070.72;;;21.34;52.70
49311;BME280;35177;45.900;5.946;2023-08-01T08:45:10;97071.19;;;21.37;53.43
49311;BME280;35177;45.900;5.946;2023-08-01T08:47:42;97071.38;;;21.36;52.49
49311;BME280;35177;45.900;5.946;2023-08-01T08:50:08;97080.22;;;21.44;51.63
49311;BME280;35177;45.900;5.946;2023-08-01T08:52:35;97087.50;;;21.59;51.99
49311;BME280;35177;45.900;5.946;2023-08-01T08:55:01;97072.84;;;21.61;52.09
49311;BME280;35177;45.900;5.946;2023-08-01T08:57:28;97072.38;;;21.72;51.37
49311;BME280;35177;45.900;5.946;2023-08-01T08:59:56;97093.34;;;21.85;52.15
49311;BME280;35177;45.900;5.946;2023-08-01T09:02:22;97077.19;;;21.85;51.03
49311;BME280;35177;45.900;5.946;2023-08-01T09:04:47;97067.34;;;21.92;50.63
49311;BME280;35177;45.900;5.946;2023-08-01T09:07:14;97082.75;;;21.98;50.91
49311;BME280;35177;45.900;5.946;2023-08-01T09:09:40;97078.59;;;22.10;49.44
49311;BME280;35177;45.900;5.946;2023-08-01T09:12:07;97067.75;;;22.18;50.85
49311;BME280;35177;45.900;5.946;2023-08-01T09:14:33;97065.69;;;22.20;48.97
49311;BME280;35177;45.900;5.946;2023-08-01T09:17:08;97064.56;;;22.29;47.71
49311;BME280;35177;45.900;5.946;2023-08-01T09:19:34;97078.84;;;22.44;48.34
49311;BME280;35177;45.900;5.946;2023-08-01T09:21:59;97088.06;;;22.35;48.28
49311;BME280;35177;45.900;5.946;2023-08-01T09:24:25;97071.81;;;22.29;50.24
49311;BME280;35177;45.900;5.946;2023-08-01T09:26:50;97066.78;;;22.40;48.98
49311;BME280;35177;45.900;5.946;2023-08-01T09:29:17;97067.97;;;22.52;49.35
49311;BME280;35177;45.900;5.946;2023-08-01T09:31:43;97074.13;;;22.61;47.21
49311;BME280;35177;45.900;5.946;2023-08-01T09:34:23;97081.28;;;22.68;46.13
49311;BME280;35177;45.900;5.946;2023-08-01T09:36:49;97068.16;;;22.65;45.57
49311;BME280;35177;45.900;5.946;2023-08-01T09:39:20;97057.28;;;22.73;45.00
49311;BME280;35177;45.900;5.946;2023-08-01T09:41:57;97065.00;;;22.98;45.19
49311;BME280;35177;45.900;5.946;2023-08-01T09:44:23;97058.47;;;23.07;43.18
49311;BME280;35177;45.900;5.946;2023-08-01T09:47:00;97057.91;;;23.11;43.33
49311;BME280;35177;45.900;5.946;2023-08-01T09:49:27;97062.53;;;23.17;47.10
49311;BME280;35177;45.900;5.946;2023-08-01T09:51:53;97060.97;;;23.29;45.63
49311;BME280;35177;45.900;5.946;2023-08-01T09:54:20;97061.16;;;23.28;44.77
49311;BME280;35177;45.900;5.946;2023-08-01T09:56:47;97068.69;;;23.54;44.57
49311;BME280;35177;45.900;5.946;2023-08-01T09:59:19;97051.66;;;23.32;42.98
49311;BME280;35177;45.900;5.946;2023-08-01T10:01:47;97066.47;;;23.36;44.82
49311;BME280;35177;45.900;5.946;2023-08-01T10:04:13;97060.28;;;23.42;43.57
49311;BME280;35177;45.900;5.946;2023-08-01T10:06:42;97061.94;;;23.64;44.82
49311;BME280;35177;45.900;5.946;2023-08-01T10:09:10;97058.63;;;23.41;43.38
49311;BME280;35177;45.900;5.946;2023-08-01T10:11:38;97071.75;;;23.44;44.18
49311;BME280;35177;45.900;5.946;2023-08-01T10:14:04;97074.19;;;23.60;43.58
49311;BME280;35177;45.900;5.946;2023-08-01T10:16:30;97064.25;;;23.25;43.98
49311;BME280;35177;45.900;5.946;2023-08-01T10:18:56;97062.97;;;23.42;44.34
49311;BME280;35177;45.900;5.946;2023-08-01T10:21:23;97066.75;;;23.26;44.33
49311;BME280;35177;45.900;5.946;2023-08-01T10:23:51;97061.81;;;23.30;44.19
49311;BME280;35177;45.900;5.946;2023-08-01T10:26:16;97062.53;;;23.17;44.68
49311;BME280;35177;45.900;5.946;2023-08-01T10:28:50;97049.75;;;23.47;45.14
49311;BME280;35177;45.900;5.946;2023-08-01T10:31:17;97055.97;;;23.69;45.28
49311;BME280;35177;45.900;5.946;2023-08-01T10:33:48;97048.28;;;23.72;45.59
49311;BME280;35177;45.900;5.946;2023-08-01T10:36:20;97046.97;;;23.62;45.18
49311;BME280;35177;45.900;5.946;2023-08-01T10:41:28;97045.72;;;23.64;46.22
49311;BME280;35177;45.900;5.946;2023-08-01T10:44:12;97047.50;;;23.78;44.95
49311;BME280;35177;45.900;5.946;2023-08-01T10:46:58;97050.56;;;24.03;46.00
49311;BME280;35177;45.900;5.946;2023-08-01T10:49:41;97047.19;;;23.94;45.77
49311;BME280;35177;45.900;5.946;2023-08-01T10:54:44;97036.88;;;24.04;46.01
49311;BME280;35177;45.900;5.946;2023-08-01T10:57:15;97030.13;;;24.62;45.67
49311;BME280;35177;45.900;5.946;2023-08-01T10:59:41;97023.41;;;25.12;45.47
49311;BME280;35177;45.900;5.946;2023-08-01T11:02:07;97027.34;;;25.16;44.01
49311;BME280;35177;45.900;5.946;2023-08-01T11:04:32;97024.03;;;25.14;43.62
49311;BME280;35177;45.900;5.946;2023-08-01T11:06:58;97012.78;;;25.24;43.39
49311;BME280;35177;45.900;5.946;2023-08-01T11:09:27;97011.78;;;25.90;43.88
49311;BME280;35177;45.900;5.946;2023-08-01T11:11:55;97017.31;;;26.28;42.66
49311;BME280;35177;45.900;5.946;2023-08-01T11:14:22;97021.81;;;26.54;40.63
49311;BME280;35177;45.900;5.946;2023-08-01T11:16:49;97014.25;;;26.75;39.30
49311;BME280;35177;45.900;5.946;2023-08-01T11:19:25;97003.38;;;26.05;39.98
49311;BME280;35177;45.900;5.946;2023-08-01T11:21:51;97003.06;;;26.52;40.03
49311;BME280;35177;45.900;5.946;2023-08-01T11:24:18;97012.75;;;26.09;40.73
49311;BME280;35177;45.900;5.946;2023-08-01T11:26:46;96995.22;;;26.25;41.19
49311;BME280;35177;45.900;5.946;2023-08-01T11:29:12;96998.41;;;26.66;39.63
49311;BME280;35177;45.900;5.946;2023-08-01T11:31:39;96993.03;;;26.46;41.30
49311;BME280;35177;45.900;5.946;2023-08-01T11:34:07;96998.84;;;25.73;40.96
49311;BME280;35177;45.900;5.946;2023-08-01T11:36:36;96980.72;;;25.73;41.35
49311;BME280;35177;45.900;5.946;2023-08-01T11:39:02;96984.56;;;26.36;39.76
49311;BME280;35177;45.900;5.946;2023-08-01T11:41:28;96984.84;;;25.89;40.19
49311;BME280;35177;45.900;5.946;2023-08-01T11:43:54;96987.38;;;25.77;41.08
49311;BME280;35177;45.900;5.946;2023-08-01T11:46:20;96993.22;;;25.41;42.94
49311;BME280;35177;45.900;5.946;2023-08-01T11:48:47;96995.28;;;25.26;42.32
49311;BME280;35177;45.900;5.946;2023-08-01T11:51:13;96982.19;;;25.49;41.57
49311;BME280;35177;45.900;5.946;2023-08-01T11:53:39;96972.19;;;25.63;41.71
49311;BME280;35177;45.900;5.946;2023-08-01T11:56:05;96977.56;;;26.60;41.17
49311;BME280;35177;45.900;5.946;2023-08-01T11:58:35;96964.88;;;26.47;40.42
49311;BME280;35177;45.900;5.946;2023-08-01T12:01:06;96961.16;;;26.35;41.58
49311;BME280;35177;45.900;5.946;2023-08-01T12:03:31;96972.31;;;26.01;41.28
49311;BME280;35177;45.900;5.946;2023-08-01T12:06:05;96980.31;;;25.63;41.43
49311;BME280;35177;45.900;5.946;2023-08-01T12:08:33;96972.38;;;25.16;42.80
49311;BME280;35177;45.900;5.946;2023-08-01T12:10:58;96968.22;;;25.26;43.58
49311;BME280;35177;45.900;5.946;2023-08-01T12:13:25;96961.75;;;25.01;43.87
49311;BME280;35177;45.900;5.946;2023-08-01T12:15:53;96961.06;;;24.79;44.02
49311;BME280;35177;45.900;5.946;2023-08-01T12:18:25;96966.72;;;24.98;45.04
49311;BME280;35177;45.900;5.946;2023-08-01T12:20:51;96959.88;;;25.08;45.14
49311;BME280;35177;45.900;5.946;2023-08-01T12:23:17;96951.53;;;24.90;43.68
49311;BME280;35177;45.900;5.946;2023-08-01T12:25:43;96963.38;;;24.76;44.35
49311;BME280;35177;45.900;5.946;2023-08-01T12:28:08;96963.72;;;24.60;45.50
49311;BME280;35177;45.900;5.946;2023-08-01T12:30:34;96968.69;;;24.63;45.28
49311;BME280;35177;45.900;5.946;2023-08-01T12:32:59;96969.94;;;24.54;45.67
49311;BME280;35177;45.900;5.946;2023-08-01T12:35:25;96972.84;;;24.46;45.88
49311;BME280;35177;45.900;5.946;2023-08-01T12:37:51;96977.78;;;24.36;46.73
49311;BME280;35177;45.900;5.946;2023-08-01T12:40:18;96993.78;;;24.31;46.25
49311;BME280;35177;45.900;5.946;2023-08-01T12:42:44;96987.09;;;24.27;47.58
49311;BME280;35177;45.900;5.946;2023-08-01T12:45:09;96990.88;;;23.98;49.19
49311;BME280;35177;45.900;5.946;2023-08-01T12:47:35;96983.22;;;24.01;50.38
49311;BME280;35177;45.900;5.946;2023-08-01T12:50:00;96994.63;;;23.97;51.13
49311;BME280;35177;45.900;5.946;2023-08-01T12:52:26;96994.88;;;24.02;51.01
49311;BME280;35177;45.900;5.946;2023-08-01T12:54:52;96987.88;;;23.52;53.32
49311;BME280;35177;45.900;5.946;2023-08-01T12:57:17;96997.31;;;22.93;59.10
49311;BME280;35177;45.900;5.946;2023-08-01T12:59:44;96999.75;;;22.88;58.25
49311;BME280;35177;45.900;5.946;2023-08-01T13:02:09;96995.69;;;22.98;58.72
49311;BME280;35177;45.900;5.946;2023-08-01T13:04:35;97000.97;;;22.85;59.33